sensor_id;sensor_type;location;lat;lon;timestamp;pressure;altitude;pressure_sealevel;temperature;humidity
38225;BME280;24025;48.138;11.428;2023-03-22T00:00:39;95391.31;;;9.78;66.42
38225;BME280;24025;48.138;11.428;2023-03-22T00:03:11;95386.00;;;9.78;66.27
38225;BME280;24025;48.138;11.428;2023-03-22T00:05:43;95383.28;;;9.74;66.33
38225;BME280;24025;48.138;11.428;2023-03-22T00:08:15;95382.06;;;9.68;67.01
38225;BME280;24025;48.138;11.428;2023-03-22T00:10:46;95380.53;;;9.67;66.39
38225;BME280;24025;48.138;11.428;2023-03-22T00:13:18;95376.44;;;9.73;67.03
38225;BME280;24025;48.138;11.428;2023-03-22T00:15:50;95371.03;;;9.70;66.89
38225;BME280;24025;48.138;11.428;2023-03-22T00:18:22;95369.22;;;9.74;67.09
38225;BME280;24025;48.138;11.428;2023-03-22T00:20:55;95360.41;;;9.70;66.70
38225;BME280;24025;48.138;11.428;2023-03-22T00:23:28;95364.19;;;9.69;67.35
38225;BME280;24025;48.138;11.428;2023-03-22T00:25:59;95356.53;;;9.63;67.42
38225;BME280;24025;48.138;11.428;2023-03-22T00:28:31;95353.88;;;9.63;66.85
38225;BME280;24025;48.138;11.428;2023-03-22T00:31:03;95351.97;;;9.64;67.25
38225;BME280;24025;48.138;11.428;2023-03-22T00:33:35;95348.94;;;9.65;67.49
38225;BME280;24025;48.138;11.428;2023-03-22T00:36:10;95361.13;;;9.67;68.13
38225;BME280;24025;48.138;11.428;2023-03-22T00:38:41;95357.38;;;9.71;67.85
38225;BME280;24025;48.138;11.428;2023-03-22T00:43:48;95357.44;;;9.75;68.02
38225;BME280;24025;48.138;11.428;2023-03-22T00:46:20;95354.88;;;9.82;66.90
38225;BME280;24025;48.138;11.428;2023-03-22T00:48:52;95339.22;;;9.80;68.36
38225;BME280;24025;48.138;11.428;2023-03-22T00:51:24;95346.50;;;9.83;67.80
38225;BME280;24025;48.138;11.428;2023-03-22T00:53:55;95341.22;;;9.87;67.89
38225;BME280;24025;48.138;11.428;2023-03-22T00:56:27;95337.50;;;9.91;67.57
38225;BME280;24025;48.138;11.428;2023-03-22T00:58:59;95345.00;;;9.86;67.90
38225;BME280;24025;48.138;11.428;2023-03-22T01:01:30;95343.84;;;9.83;67.83
38225;BME280;24025;48.138;11.428;2023-03-22T01:04:03;95330.91;;;9.82;67.80
38225;BME280;24025;48.138;11.428;2023-03-22T01:06:35;95340.81;;;9.85;67.70
38225;BME280;24025;48.138;11.428;2023-03-22T01:09:07;95340.03;;;9.81;68.46
38225;BME280;24025;48.138;11.428;2023-03-22T01:11:41;95335.50;;;9.85;67.90
38225;BME280;24025;48.138;11.428;2023-03-22T01:14:13;95345.69;;;9.79;68.59
38225;BME280;24025;48.138;11.428;2023-03-22T01:16:44;95345.38;;;9.84;67.48
38225;BME280;24025;48.138;11.428;2023-03-22T01:19:16;95347.69;;;9.86;67.36
38225;BME280;24025;48.138;11.428;2023-03-22T01:21:48;95333.91;;;9.80;67.72
38225;BME280;24025;48.138;11.428;2023-03-22T01:24:20;95330.13;;;9.81;67.93
38225;BME280;24025;48.138;11.428;2023-03-22T01:26:52;95335.00;;;9.76;68.32
38225;BME280;24025;48.138;11.428;2023-03-22T01:29:24;95336.16;;;9.78;68.07
38225;BME280;24025;48.138;11.428;2023-03-22T01:31:55;95333.41;;;9.71;68.08
38225;BME280;24025;48.138;11.428;2023-03-22T01:34:27;95327.38;;;9.74;68.19
38225;BME280;24025;48.138;11.428;2023-03-22T01:36:59;95325.78;;;9.70;68.66
38225;BME280;24025;48.138;11.428;2023-03-22T01:39:30;95322.34;;;9.69;68.28
38225;BME280;24025;48.138;11.428;2023-03-22T01:42:02;95319.28;;;9.67;68.56
38225;BME280;24025;48.138;11.428;2023-03-22T01:44:35;95316.53;;;9.60;68.73
38225;BME280;24025;48.138;11.428;2023-03-22T01:47:07;95320.28;;;9.55;68.75
38225;BME280;24025;48.138;11.428;2023-03-22T01:49:41;95317.94;;;9.50;69.50
38225;BME280;24025;48.138;11.428;2023-03-22T01:52:13;95317.56;;;9.52;68.81
38225;BME280;24025;48.138;11.428;2023-03-22T01:54:49;95317.13;;;9.46;69.34
38225;BME280;24025;48.138;11.428;2023-03-22T01:57:23;95308.69;;;9.41;69.37
38225;BME280;24025;48.138;11.428;2023-03-22T01:59:55;95313.19;;;9.36;69.42
38225;BME280;24025;48.138;11.428;2023-03-22T02:02:26;95310.16;;;9.38;69.13
38225;BME280;24025;48.138;11.428;2023-03-22T02:05:02;95306.31;;;9.35;69.40
38225;BME280;24025;48.138;11.428;2023-03-22T02:07:36;95309.69;;;9.32;69.80
38225;BME280;24025;48.138;11.428;2023-03-22T02:10:14;95307.41;;;9.31;69.38
38225;BME280;24025;48.138;11.428;2023-03-22T02:15:49;95305.91;;;9.33;69.73
38225;BME280;24025;48.138;11.428;2023-03-22T02:18:46;95310.47;;;9.33;69.35
38225;BME280;24025;48.138;11.428;2023-03-22T02:21:31;95317.56;;;9.25;70.04
38225;BME280;24025;48.138;11.428;2023-03-22T02:24:52;95305.03;;;9.26;69.64
38225;BME280;24025;48.138;11.428;2023-03-22T02:27:30;95303.06;;;9.19;69.87
38225;BME280;24025;48.138;11.428;2023-03-22T02:30:30;95288.19;;;9.18;70.18
38225;BME280;24025;48.138;11.428;2023-03-22T02:44:42;95289.31;;;8.91;70.89
38225;BME280;24025;48.138;11.428;2023-03-22T02:52:28;95302.44;;;8.80;71.45
38225;BME280;24025;48.138;11.428;2023-03-22T02:55:09;95310.03;;;8.78;71.24
38225;BME280;24025;48.138;11.428;2023-03-22T02:57:47;95315.56;;;8.69;71.47
38225;BME280;24025;48.138;11.428;2023-03-22T03:00:20;95313.28;;;8.68;71.81
38225;BME280;24025;48.138;11.428;2023-03-22T03:02:55;95309.78;;;8.64;71.77
38225;BME280;24025;48.138;11.428;2023-03-22T03:05:31;95312.75;;;8.59;71.78
38225;BME280;24025;48.138;11.428;2023-03-22T03:08:04;95309.97;;;8.51;72.22
38225;BME280;24025;48.138;11.428;2023-03-22T03:10:39;95316.81;;;8.52;71.63
38225;BME280;24025;48.138;11.428;2023-03-22T03:13:14;95320.88;;;8.46;71.98
38225;BME280;24025;48.138;11.428;2023-03-22T03:15:55;95322.63;;;8.39;71.77
38225;BME280;24025;48.138;11.428;2023-03-22T03:18:41;95317.25;;;8.35;72.07
38225;BME280;24025;48.138;11.428;2023-03-22T03:26:41;95327.03;;;8.31;72.27
38225;BME280;24025;48.138;11.428;2023-03-22T03:32:05;95321.59;;;8.24;72.26
38225;BME280;24025;48.138;11.428;2023-03-22T03:37:50;95312.50;;;8.25;72.25
38225;BME280;24025;48.138;11.428;2023-03-22T03:40:37;95325.28;;;8.19;72.13
38225;BME280;24025;48.138;11.428;2023-03-22T03:43:11;95317.31;;;8.19;71.86
38225;BME280;24025;48.138;11.428;2023-03-22T03:45:43;95318.75;;;8.13;71.69
38225;BME280;24025;48.138;11.428;2023-03-22T03:48:23;95317.84;;;8.06;72.29
38225;BME280;24025;48.138;11.428;2023-03-22T03:50:58;95324.75;;;8.10;72.33
38225;BME280;24025;48.138;11.428;2023-03-22T03:53:30;95317.91;;;8.09;71.95
38225;BME280;24025;48.138;11.428;2023-03-22T03:56:02;95309.16;;;8.09;72.14
38225;BME280;24025;48.138;11.428;2023-03-22T03:58:34;95309.88;;;8.06;71.98
38225;BME280;24025;48.138;11.428;2023-03-22T04:01:06;95307.91;;;8.03;72.08
38225;BME280;24025;48.138;11.428;2023-03-22T04:03:37;95304.47;;;8.02;72.48
38225;BME280;24025;48.138;11.428;2023-03-22T04:06:09;95307.44;;;7.97;72.19
38225;BME280;24025;48.138;11.428;2023-03-22T04:08:40;95308.59;;;8.00;72.23
38225;BME280;24025;48.138;11.428;2023-03-22T04:11:15;95305.59;;;8.01;71.96
38225;BME280;24025;48.138;11.428;2023-03-22T04:13:47;95304.41;;;7.99;72.28
38225;BME280;24025;48.138;11.428;2023-03-22T04:16:18;95305.25;;;8.03;72.80
38225;BME280;24025;48.138;11.428;2023-03-22T04:18:50;95305.91;;;7.96;72.85
38225;BME280;24025;48.138;11.428;2023-03-22T04:21:22;95313.22;;;8.03;72.56
38225;BME280;24025;48.138;11.428;2023-03-22T04:23:53;95312.94;;;8.08;72.28
38225;BME280;24025;48.138;11.428;2023-03-22T04:26:26;95312.59;;;8.09;72.67
38225;BME280;24025;48.138;11.428;2023-03-22T04:28:57;95313.44;;;8.13;72.53
38225;BME280;24025;48.138;11.428;2023-03-22T04:31:31;95307.00;;;8.14;72.25
38225;BME280;24025;48.138;11.428;2023-03-22T04:34:02;95308.94;;;8.17;72.16
38225;BME280;24025;48.138;11.428;2023-03-22T04:36:37;95311.53;;;8.14;72.54
38225;BME280;24025;48.138;11.428;2023-03-22T04:39:12;95306.66;;;8.16;72.96
38225;BME280;24025;48.138;11.428;2023-03-22T04:41:44;95303.28;;;8.19;72.46
38225;BME280;24025;48.138;11.428;2023-03-22T04:44:15;95299.78;;;8.15;72.72
38225;BME280;24025;48.138;11.428;2023-03-22T04:46:48;95294.06;;;8.13;72.93
38225;BME280;24025;48.138;11.428;2023-03-22T04:49:20;95294.41;;;8.11;73.47
38225;BME280;24025;48.138;11.428;2023-03-22T04:51:55;95300.44;;;8.08;73.99
38225;BME280;24025;48.138;11.428;2023-03-22T04:54:27;95288.63;;;8.06;73.57
38225;BME280;24025;48.138;11.428;2023-03-22T04:56:59;95295.06;;;8.05;73.32
38225;BME280;24025;48.138;11.428;2023-03-22T04:59:31;95302.59;;;8.03;73.52
38225;BME280;24025;48.138;11.428;2023-03-22T05:02:05;95306.00;;;8.03;73.18
38225;BME280;24025;48.138;11.428;2023-03-22T05:04:36;95301.81;;;8.02;73.33
38225;BME280;24025;48.138;11.428;2023-03-22T05:07:08;95305.19;;;7.99;73.68
38225;BME280;24025;48.138;11.428;2023-03-22T05:09:39;95302.13;;;7.97;73.75
38225;BME280;24025;48.138;11.428;2023-03-22T05:12:11;95300.78;;;7.87;74.05
38225;BME280;24025;48.138;11.428;2023-03-22T05:14:44;95298.06;;;7.84;74.25
38225;BME280;24025;48.138;11.428;2023-03-22T05:17:15;95302.25;;;7.85;74.50
38225;BME280;24025;48.138;11.428;2023-03-22T05:19:47;95295.75;;;7.82;74.46
38225;BME280;24025;48.138;11.428;2023-03-22T05:22:19;95303.00;;;7.85;74.30
38225;BME280;24025;48.138;11.428;2023-03-22T05:24:52;95306.72;;;7.81;74.01
38225;BME280;24025;48.138;11.428;2023-03-22T05:27:24;95306.38;;;7.82;74.31
38225;BME280;24025;48.138;11.428;2023-03-22T05:30:02;95310.84;;;7.78;74.61
38225;BME280;24025;48.138;11.428;2023-03-22T05:32:34;95304.44;;;7.79;74.37
38225;BME280;24025;48.138;11.428;2023-03-22T05:35:08;95303.72;;;7.82;74.23
38225;BME280;24025;48.138;11.428;2023-03-22T05:37:39;95301.06;;;7.82;74.63
38225;BME280;24025;48.138;11.428;2023-03-22T05:40:11;95302.59;;;7.83;74.88
38225;BME280;24025;48.138;11.428;2023-03-22T05:42:44;95314.75;;;7.84;74.63
38225;BME280;24025;48.138;11.428;2023-03-22T05:45:17;95303.88;;;7.89;74.32
38225;BME280;24025;48.138;11.428;2023-03-22T05:47:49;95304.22;;;7.88;74.53
38225;BME280;24025;48.138;11.428;2023-03-22T05:50:22;95305.41;;;7.90;74.27
38225;BME280;24025;48.138;11.428;2023-03-22T05:52:53;95306.22;;;7.94;74.53
38225;BME280;24025;48.138;11.428;2023-03-22T05:55:25;95306.72;;;8.00;74.32
38225;BME280;24025;48.138;11.428;2023-03-22T05:58:00;95306.00;;;8.03;74.48
38225;BME280;24025;48.138;11.428;2023-03-22T06:00:33;95305.31;;;8.06;74.55
38225;BME280;24025;48.138;11.428;2023-03-22T06:03:06;95303.09;;;8.08;75.41
38225;BME280;24025;48.138;11.428;2023-03-22T06:05:38;95305.53;;;8.17;74.84
38225;BME280;24025;48.138;11.428;2023-03-22T06:08:11;95302.81;;;8.13;74.11
38225;BME280;24025;48.138;11.428;2023-03-22T06:10:42;95306.00;;;8.22;74.31
38225;BME280;24025;48.138;11.428;2023-03-22T06:13:14;95310.19;;;8.23;74.40
38225;BME280;24025;48.138;11.428;2023-03-22T06:15:46;95313.03;;;8.34;74.26
38225;BME280;24025;48.138;11.428;2023-03-22T06:18:18;95315.16;;;8.44;74.10
38225;BME280;24025;48.138;11.428;2023-03-22T06:20:49;95309.59;;;8.53;72.72
38225;BME280;24025;48.138;11.428;2023-03-22T06:23:21;95311.22;;;8.58;72.35
38225;BME280;24025;48.138;11.428;2023-03-22T06:25:53;95306.84;;;8.69;72.79
38225;BME280;24025;48.138;11.428;2023-03-22T06:28:24;95312.28;;;8.76;71.80
38225;BME280;24025;48.138;11.428;2023-03-22T06:31:07;95299.44;;;8.82;72.56
38225;BME280;24025;48.138;11.428;2023-03-22T06:33:39;95297.72;;;8.93;71.82
38225;BME280;24025;48.138;11.428;2023-03-22T06:36:11;95307.00;;;9.02;71.59
38225;BME280;24025;48.138;11.428;2023-03-22T06:38:43;95306.75;;;9.11;70.65
38225;BME280;24025;48.138;11.428;2023-03-22T06:41:14;95293.09;;;9.13;69.76
38225;BME280;24025;48.138;11.428;2023-03-22T06:43:46;95306.91;;;9.22;69.75
38225;BME280;24025;48.138;11.428;2023-03-22T06:46:17;95307.03;;;9.32;68.92
38225;BME280;24025;48.138;11.428;2023-03-22T06:48:49;95312.88;;;9.42;68.74
38225;BME280;24025;48.138;11.428;2023-03-22T06:51:21;95311.47;;;9.51;67.30
38225;BME280;24025;48.138;11.428;2023-03-22T06:53:52;95311.56;;;9.58;66.99
38225;BME280;24025;48.138;11.428;2023-03-22T06:56:25;95320.34;;;9.62;66.26
38225;BME280;24025;48.138;11.428;2023-03-22T06:58:57;95320.78;;;9.64;65.11
38225;BME280;24025;48.138;11.428;2023-03-22T07:01:30;95323.19;;;9.73;65.19
38225;BME280;24025;48.138;11.428;2023-03-22T07:04:02;95324.03;;;9.81;64.92
38225;BME280;24025;48.138;11.428;2023-03-22T07:06:34;95323.44;;;9.94;64.12
38225;BME280;24025;48.138;11.428;2023-03-22T07:09:06;95329.13;;;9.93;63.97
38225;BME280;24025;48.138;11.428;2023-03-22T07:11:42;95329.63;;;10.02;63.74
38225;BME280;24025;48.138;11.428;2023-03-22T07:14:13;95330.50;;;10.13;63.61
38225;BME280;24025;48.138;11.428;2023-03-22T07:16:45;95328.69;;;10.21;63.44
38225;BME280;24025;48.138;11.428;2023-03-22T07:19:17;95328.81;;;10.32;63.35
38225;BME280;24025;48.138;11.428;2023-03-22T07:21:49;95330.44;;;10.40;62.99
38225;BME280;24025;48.138;11.428;2023-03-22T07:24:20;95324.41;;;10.46;62.44
38225;BME280;24025;48.138;11.428;2023-03-22T07:26:52;95328.25;;;10.49;62.95
38225;BME280;24025;48.138;11.428;2023-03-22T07:29:24;95332.44;;;10.50;62.47
38225;BME280;24025;48.138;11.428;2023-03-22T07:31:55;95331.72;;;10.53;62.76
38225;BME280;24025;48.138;11.428;2023-03-22T07:34:27;95327.56;;;10.59;62.83
38225;BME280;24025;48.138;11.428;2023-03-22T07:36:59;95321.19;;;10.67;62.38
38225;BME280;24025;48.138;11.428;2023-03-22T07:39:32;95331.97;;;10.78;62.08
38225;BME280;24025;48.138;11.428;2023-03-22T07:42:04;95325.13;;;10.81;61.76
38225;BME280;24025;48.138;11.428;2023-03-22T07:44:37;95322.53;;;10.91;61.34
38225;BME280;24025;48.138;11.428;2023-03-22T07:47:08;95323.75;;;10.97;60.77
38225;BME280;24025;48.138;11.428;2023-03-22T07:49:40;95326.09;;;11.06;60.27
38225;BME280;24025;48.138;11.428;2023-03-22T07:52:11;95328.81;;;11.13;59.36
38225;BME280;24025;48.138;11.428;2023-03-22T07:54:43;95328.06;;;11.16;59.42
38225;BME280;24025;48.138;11.428;2023-03-22T07:57:15;95322.44;;;11.28;59.65
38225;BME280;24025;48.138;11.428;2023-03-22T07:59:46;95324.00;;;11.37;59.46
38225;BME280;24025;48.138;11.428;2023-03-22T08:02:18;95327.91;;;11.50;59.70
38225;BME280;24025;48.138;11.428;2023-03-22T08:04:50;95320.34;;;11.59;59.44
38225;BME280;24025;48.138;11.428;2023-03-22T08:07:27;95320.41;;;11.70;59.20
38225;BME280;24025;48.138;11.428;2023-03-22T08:10:00;95318.56;;;11.81;59.33
38225;BME280;24025;48.138;11.428;2023-03-22T08:12:32;95318.59;;;11.91;59.25
38225;BME280;24025;48.138;11.428;2023-03-22T08:15:04;95319.78;;;12.01;58.76
38225;BME280;24025;48.138;11.428;2023-03-22T08:17:36;95325.19;;;12.15;57.85
38225;BME280;24025;48.138;11.428;2023-03-22T08:20:08;95313.38;;;12.24;57.23
38225;BME280;24025;48.138;11.428;2023-03-22T08:22:39;95322.97;;;12.32;56.66
38225;BME280;24025;48.138;11.428;2023-03-22T08:25:14;95310.38;;;12.43;56.88
38225;BME280;24025;48.138;11.428;2023-03-22T08:27:47;95319.19;;;12.54;55.55
38225;BME280;24025;48.138;11.428;2023-03-22T08:30:19;95322.63;;;12.62;55.37
38225;BME280;24025;48.138;11.428;2023-03-22T08:32:52;95316.53;;;12.68;54.47
38225;BME280;24025;48.138;11.428;2023-03-22T08:35:24;95318.84;;;12.73;54.19
38225;BME280;24025;48.138;11.428;2023-03-22T08:37:55;95319.59;;;12.77;53.25
38225;BME280;24025;48.138;11.428;2023-03-22T08:40:27;95315.03;;;12.82;52.63
38225;BME280;24025;48.138;11.428;2023-03-22T08:42:59;95313.13;;;12.86;52.15
38225;BME280;24025;48.138;11.428;2023-03-22T08:45:31;95318.84;;;12.88;51.50
38225;BME280;24025;48.138;11.428;2023-03-22T08:48:03;95316.94;;;12.95;51.80
38225;BME280;24025;48.138;11.428;2023-03-22T08:50:34;95310.06;;;13.05;51.51
38225;BME280;24025;48.138;11.428;2023-03-22T08:53:06;95304.34;;;13.17;51.18
38225;BME280;24025;48.138;11.428;2023-03-22T08:55:38;95311.25;;;13.25;50.97
38225;BME280;24025;48.138;11.428;2023-03-22T08:58:11;95312.72;;;13.33;50.71
38225;BME280;24025;48.138;11.428;2023-03-22T09:00:43;95311.59;;;13.45;50.90
38225;BME280;24025;48.138;11.428;2023-03-22T09:03:19;95306.22;;;13.49;49.22
38225;BME280;24025;48.138;11.428;2023-03-22T09:05:51;95309.25;;;13.51;48.94
38225;BME280;24025;48.138;11.428;2023-03-22T09:08:23;95305.06;;;13.60;49.21
38225;BME280;24025;48.138;11.428;2023-03-22T09:10:54;95305.41;;;13.73;49.63
38225;BME280;24025;48.138;11.428;2023-03-22T09:13:26;95301.91;;;13.87;49.17
38225;BME280;24025;48.138;11.428;2023-03-22T09:15:59;95299.97;;;13.91;48.38
38225;BME280;24025;48.138;11.428;2023-03-22T09:18:31;95296.91;;;13.93;47.94
38225;BME280;24025;48.138;11.428;2023-03-22T09:21:05;95298.41;;;14.01;48.40
38225;BME280;24025;48.138;11.428;2023-03-22T09:23:37;95292.66;;;14.02;47.78
38225;BME280;24025;48.138;11.428;2023-03-22T09:26:09;95293.00;;;14.04;48.01
38225;BME280;24025;48.138;11.428;2023-03-22T09:28:41;95287.97;;;14.21;48.53
38225;BME280;24025;48.138;11.428;2023-03-22T09:31:13;95280.66;;;14.32;47.87
38225;BME280;24025;48.138;11.428;2023-03-22T09:33:45;95283.25;;;14.46;48.36
38225;BME280;24025;48.138;11.428;2023-03-22T09:36:17;95273.66;;;14.52;47.55
38225;BME280;24025;48.138;11.428;2023-03-22T09:38:50;95273.56;;;14.63;47.90
38225;BME280;24025;48.138;11.428;2023-03-22T09:41:37;95272.00;;;14.69;47.34
38225;BME280;24025;48.138;11.428;2023-03-22T09:44:15;95271.97;;;14.76;46.91
38225;BME280;24025;48.138;11.428;2023-03-22T09:46:51;95272.72;;;14.77;47.17
38225;BME280;24025;48.138;11.428;2023-03-22T09:49:28;95268.38;;;14.93;47.04
38225;BME280;24025;48.138;11.428;2023-03-22T09:52:23;95265.94;;;15.06;47.08
38225;BME280;24025;48.138;11.428;2023-03-22T09:54:55;95263.97;;;15.10;46.65
38225;BME280;24025;48.138;11.428;2023-03-22T09:57:33;95256.59;;;15.21;46.14
38225;BME280;24025;48.138;11.428;2023-03-22T10:00:14;95261.81;;;15.39;45.54
38225;BME280;24025;48.138;11.428;2023-03-22T10:02:57;95249.59;;;15.31;44.91
38225;BME280;24025;48.138;11.428;2023-03-22T10:10:53;95246.75;;;15.45;44.13
38225;BME280;24025;48.138;11.428;2023-03-22T10:13:35;95248.31;;;15.46;43.84
38225;BME280;24025;48.138;11.428;2023-03-22T10:16:13;95241.13;;;15.74;44.89
38225;BME280;24025;48.138;11.428;2023-03-22T10:18:56;95243.19;;;15.93;43.86
38225;BME280;24025;48.138;11.428;2023-03-22T10:21:32;95240.28;;;16.07;43.84
38225;BME280;24025;48.138;11.428;2023-03-22T10:24:15;95238.41;;;16.04;43.62
38225;BME280;24025;48.138;11.428;2023-03-22T10:26:48;95236.59;;;16.25;43.16
38225;BME280;24025;48.138;11.428;2023-03-22T10:32:19;95229.09;;;16.39;42.47
38225;BME280;24025;48.138;11.428;2023-03-22T10:34:53;95222.25;;;16.35;42.04
38225;BME280;24025;48.138;11.428;2023-03-22T10:37:32;95224.97;;;16.31;41.88
38225;BME280;24025;48.138;11.428;2023-03-22T10:40:06;95223.88;;;16.29;41.38
38225;BME280;24025;48.138;11.428;2023-03-22T10:42:39;95223.38;;;16.37;41.75
38225;BME280;24025;48.138;11.428;2023-03-22T10:45:13;95222.34;;;16.55;41.36
38225;BME280;24025;48.138;11.428;2023-03-22T10:47:55;95216.09;;;16.61;41.31
38225;BME280;24025;48.138;11.428;2023-03-22T10:50:37;95220.44;;;16.52;40.97
38225;BME280;24025;48.138;11.428;2023-03-22T10:53:40;95221.75;;;16.70;40.01
38225;BME280;24025;48.138;11.428;2023-03-22T10:56:18;95219.94;;;16.87;40.54
38225;BME280;24025;48.138;11.428;2023-03-22T10:58:51;95229.41;;;16.95;40.04
38225;BME280;24025;48.138;11.428;2023-03-22T11:01:28;95215.00;;;16.82;40.00
38225;BME280;24025;48.138;11.428;2023-03-22T11:04:11;95207.97;;;17.12;39.74
38225;BME280;24025;48.138;11.428;2023-03-22T11:06:50;95217.09;;;17.18;39.38
38225;BME280;24025;48.138;11.428;2023-03-22T11:09:25;95205.25;;;17.35;39.83
38225;BME280;24025;48.138;11.428;2023-03-22T11:11:58;95214.09;;;17.55;39.16
38225;BME280;24025;48.138;11.428;2023-03-22T11:14:33;95212.56;;;17.54;39.39
38225;BME280;24025;48.138;11.428;2023-03-22T11:17:08;95213.06;;;17.49;39.12
38225;BME280;24025;48.138;11.428;2023-03-22T11:24:57;95206.44;;;17.94;38.68
38225;BME280;24025;48.138;11.428;2023-03-22T11:27:31;95210.38;;;17.89;38.81
38225;BME280;24025;48.138;11.428;2023-03-22T11:30:17;95205.13;;;17.82;38.47
38225;BME280;24025;48.138;11.428;2023-03-22T11:33:15;95203.16;;;17.63;38.37
38225;BME280;24025;48.138;11.428;2023-03-22T11:35:54;95191.75;;;17.95;38.33
38225;BME280;24025;48.138;11.428;2023-03-22T11:43:50;95191.09;;;18.07;37.99
38225;BME280;24025;48.138;11.428;2023-03-22T11:46:24;95177.50;;;18.30;38.04
38225;BME280;24025;48.138;11.428;2023-03-22T11:49:01;95178.00;;;18.58;37.53
38225;BME280;24025;48.138;11.428;2023-03-22T11:51:37;95172.31;;;18.20;37.51
38225;BME280;24025;48.138;11.428;2023-03-22T11:56:54;95172.28;;;18.56;37.47
38225;BME280;24025;48.138;11.428;2023-03-22T11:59:35;95156.91;;;18.53;37.16
38225;BME280;24025;48.138;11.428;2023-03-22T12:04:53;95156.31;;;18.78;37.05
38225;BME280;24025;48.138;11.428;2023-03-22T12:07:29;95150.16;;;18.77;36.96
38225;BME280;24025;48.138;11.428;2023-03-22T12:12:59;95141.16;;;18.96;36.94
38225;BME280;24025;48.138;11.428;2023-03-22T12:15:41;95142.97;;;19.16;36.22
38225;BME280;24025;48.138;11.428;2023-03-22T12:20:54;95128.47;;;19.39;34.99
38225;BME280;24025;48.138;11.428;2023-03-22T12:23:28;95128.34;;;19.42;35.62
38225;BME280;24025;48.138;11.428;2023-03-22T12:26:10;95133.28;;;19.18;34.97
38225;BME280;24025;48.138;11.428;2023-03-22T12:28:49;95123.41;;;19.12;35.23
38225;BME280;24025;48.138;11.428;2023-03-22T12:31:28;95117.31;;;19.37;35.00
38225;BME280;24025;48.138;11.428;2023-03-22T12:34:16;95112.22;;;19.39;35.53
38225;BME280;24025;48.138;11.428;2023-03-22T12:36:55;95097.78;;;19.58;34.88
38225;BME280;24025;48.138;11.428;2023-03-22T12:39:37;95108.22;;;19.72;34.77
38225;BME280;24025;48.138;11.428;2023-03-22T12:42:23;95099.91;;;19.38;34.02
38225;BME280;24025;48.138;11.428;2023-03-22T12:45:27;95096.69;;;19.56;33.87
38225;BME280;24025;48.138;11.428;2023-03-22T12:48:05;95094.03;;;19.94;33.50
38225;BME280;24025;48.138;11.428;2023-03-22T12:50:44;95088.06;;;19.73;33.58
38225;BME280;24025;48.138;11.428;2023-03-22T12:53:20;95103.28;;;19.55;33.48
38225;BME280;24025;48.138;11.428;2023-03-22T12:55:56;95089.59;;;19.62;33.46
38225;BME280;24025;48.138;11.428;2023-03-22T12:58:28;95078.66;;;19.91;33.14
38225;BME280;24025;48.138;11.428;2023-03-22T13:03:53;95079.75;;;19.80;31.89
38225;BME280;24025;48.138;11.428;2023-03-22T13:12:32;95069.78;;;19.65;32.09
38225;BME280;24025;48.138;11.428;2023-03-22T13:28:01;95059.69;;;20.98;29.64
38225;BME280;24025;48.138;11.428;2023-03-22T13:30:41;95062.22;;;21.36;29.68
38225;BME280;24025;48.138;11.428;2023-03-22T13:33:26;95058.19;;;21.81;28.84
38225;BME280;24025;48.138;11.428;2023-03-22T13:36:02;95049.66;;;22.78;28.39
38225;BME280;24025;48.138;11.428;2023-03-22T13:38:41;95048.59;;;24.48;25.48
38225;BME280;24025;48.138;11.428;2023-03-22T13:41:31;95045.66;;;24.75;25.21
38225;BME280;24025;48.138;11.428;2023-03-22T13:47:33;95046.31;;;25.83;24.31
38225;BME280;24025;48.138;11.428;2023-03-22T13:50:08;95034.91;;;26.54;22.65
38225;BME280;24025;48.138;11.428;2023-03-22T13:52:52;95036.25;;;27.05;22.03
38225;BME280;24025;48.138;11.428;2023-03-22T13:58:30;95032.44;;;26.77;22.35
38225;BME280;24025;48.138;11.428;2023-03-22T14:01:22;95031.44;;;27.52;21.80
38225;BME280;24025;48.138;11.428;2023-03-22T14:03:59;95029.72;;;27.55;21.62
38225;BME280;24025;48.138;11.428;2023-03-22T14:06:34;95026.03;;;26.86;21.02
38225;BME280;24025;48.138;11.428;2023-03-22T14:09:24;95030.34;;;28.98;19.33
38225;BME280;24025;48.138;11.428;2023-03-22T14:12:18;95017.91;;;29.98;17.84
38225;BME280;24025;48.138;11.428;2023-03-22T14:14:55;95014.88;;;31.35;16.89
38225;BME280;24025;48.138;11.428;2023-03-22T14:17:45;95012.28;;;31.83;16.09
38225;BME280;24025;48.138;11.428;2023-03-22T14:20:22;95019.00;;;30.70;17.06
38225;BME280;24025;48.138;11.428;2023-03-22T14:23:11;95004.97;;;31.56;16.44
38225;BME280;24025;48.138;11.428;2023-03-22T14:25:44;94999.78;;;31.06;17.17
38225;BME280;24025;48.138;11.428;2023-03-22T14:28:20;94995.41;;;33.36;16.30
38225;BME280;24025;48.138;11.428;2023-03-22T14:30:51;95004.31;;;33.29;16.58
38225;BME280;24025;48.138;11.428;2023-03-22T14:33:21;95000.75;;;34.11;15.47
38225;BME280;24025;48.138;11.428;2023-03-22T14:35:55;94996.19;;;33.68;15.31
38225;BME280;24025;48.138;11.428;2023-03-22T14:38:35;94996.38;;;35.16;14.44
38225;BME280;24025;48.138;11.428;2023-03-22T14:41:14;94995.16;;;35.59;13.81
38225;BME280;24025;48.138;11.428;2023-03-22T14:43:47;94987.06;;;34.92;14.49
38225;BME280;24025;48.138;11.428;2023-03-22T14:46:21;94991.75;;;33.28;15.69
38225;BME280;24025;48.138;11.428;2023-03-22T14:48:55;94999.41;;;30.10;17.84
38225;BME280;24025;48.138;11.428;2023-03-22T14:51:39;94991.00;;;28.59;18.74
38225;BME280;24025;48.138;11.428;2023-03-22T14:54:16;95001.16;;;27.04;20.40
38225;BME280;24025;48.138;11.428;2023-03-22T14:56:48;94991.06;;;26.69;20.88
38225;BME280;24025;48.138;11.428;2023-03-22T14:59:20;94997.25;;;25.59;21.28
38225;BME280;24025;48.138;11.428;2023-03-22T15:01:54;94998.44;;;25.87;20.76
38225;BME280;24025;48.138;11.428;2023-03-22T15:04:26;94989.91;;;26.56;20.36
38225;BME280;24025;48.138;11.428;2023-03-22T15:06:59;94991.75;;;25.88;20.96